Time;durP1;ratioP1;P1;durP2;ratioP2;P2;SDS_P1;SDS_P2;PMS_P1;PMS_P2;Temp;Humidity;BMP_temperature;BMP_pressure;BME280_temperature;BME280_humidity;BME280_pressure;Samples;Min_cycle;Max_cycle;Signal;HPM_P1;HPM_P2
2021/05/28 00:01:21;;;;;;;4.03;0.80;;;20.70;52.10;;;;;;5073685;28;20237;-55
2021/05/28 00:03:48;;;;;;;1.03;0.80;;;20.70;52.10;;;;;;5063133;28;20212;-54
2021/05/28 00:06:15;;;;;;;0.70;0.70;;;20.70;52.10;;;;;;5079572;28;20249;-55
2021/05/28 00:08:42;;;;;;;0.90;0.77;;;20.70;52.10;;;;;;5064003;28;20716;-55
2021/05/28 00:11:09;;;;;;;1.57;0.87;;;20.70;52.20;;;;;;5066912;28;20209;-55
2021/05/28 00:13:36;;;;;;;1.10;0.60;;;20.70;52.10;;;;;;5060148;28;20252;-55
2021/05/28 00:16:03;;;;;;;1.27;0.87;;;20.60;52.20;;;;;;5072448;28;20241;-55
2021/05/28 00:18:30;;;;;;;1.70;0.80;;;20.70;52.20;;;;;;5070286;28;20247;-56
2021/05/28 00:20:57;;;;;;;1.77;1.00;;;20.60;52.20;;;;;;5074845;28;20232;-55
2021/05/28 00:23:24;;;;;;;0.70;0.63;;;20.60;52.20;;;;;;5062086;28;20221;-55
2021/05/28 00:25:51;;;;;;;1.10;0.80;;;20.60;52.20;;;;;;5064454;28;20224;-55
2021/05/28 00:28:18;;;;;;;0.80;0.60;;;20.60;52.20;;;;;;5060640;28;20786;-55
2021/05/28 00:30:44;;;;;;;1.03;0.80;;;20.60;52.30;;;;;;5068301;28;20794;-56
2021/05/28 00:33:11;;;;;;;1.07;0.77;;;20.60;52.30;;;;;;5077111;28;20247;-56
2021/05/28 00:35:38;;;;;;;2.57;0.93;;;20.60;52.30;;;;;;5065933;28;20370;-55
2021/05/28 00:38:05;;;;;;;0.70;0.60;;;20.50;52.30;;;;;;5079509;28;20815;-55
2021/05/28 00:40:31;;;;;;;1.20;0.80;;;20.50;52.30;;;;;;5062312;28;20236;-56
2021/05/28 00:42:58;;;;;;;1.60;0.90;;;20.50;52.30;;;;;;5071068;28;20236;-56
2021/05/28 00:45:25;;;;;;;1.73;0.77;;;20.50;52.30;;;;;;5062555;28;20221;-56
2021/05/28 00:47:52;;;;;;;1.23;0.90;;;20.50;52.30;;;;;;5060178;28;20960;-56
2021/05/28 00:50:19;;;;;;;1.13;0.70;;;20.50;52.30;;;;;;5059251;28;21295;-55
2021/05/28 00:52:54;;;;;;;0.70;0.70;;;20.50;52.40;;;;;;5069198;28;20236;-55
2021/05/28 00:55:21;;;;;;;0.90;0.67;;;20.50;52.30;;;;;;5061826;28;20242;-55
2021/05/28 00:57:48;;;;;;;1.43;0.80;;;20.40;52.30;;;;;;5081472;28;20229;-56
2021/05/28 01:00:16;;;;;;;0.83;0.60;;;20.40;52.30;;;;;;5059966;28;20222;-56
2021/05/28 01:02:43;;;;;;;0.80;0.70;;;20.40;52.30;;;;;;5071568;28;20229;-55
2021/05/28 01:05:10;;;;;;;0.60;0.50;;;20.40;52.40;;;;;;5055513;28;20226;-55
2021/05/28 01:07:37;;;;;;;1.53;0.80;;;20.40;52.40;;;;;;5053839;28;20228;-55
2021/05/28 01:10:04;;;;;;;0.80;0.70;;;20.40;52.40;;;;;;5061064;28;20217;-55
2021/05/28 01:12:31;;;;;;;1.07;0.80;;;20.40;52.50;;;;;;5066979;28;20240;-56
2021/05/28 01:14:58;;;;;;;0.73;0.53;;;20.30;52.40;;;;;;5060830;28;20222;-55
2021/05/28 01:17:26;;;;;;;0.83;0.80;;;20.30;52.40;;;;;;5063628;28;20356;-55
2021/05/28 01:19:53;;;;;;;0.90;0.80;;;20.30;52.40;;;;;;5059869;28;20214;-56
2021/05/28 01:22:21;;;;;;;0.80;0.70;;;20.30;52.50;;;;;;5070997;28;20218;-56
2021/05/28 01:24:53;;;;;;;1.07;0.70;;;20.30;52.50;;;;;;5048905;28;20218;-55
2021/05/28 01:27:21;;;;;;;1.73;0.80;;;20.30;52.50;;;;;;5058659;28;20214;-55
2021/05/28 01:29:48;;;;;;;0.90;0.63;;;20.30;52.50;;;;;;5080173;28;20213;-55
2021/05/28 01:32:15;;;;;;;2.50;0.90;;;20.30;52.50;;;;;;5062294;28;20649;-54
2021/05/28 01:34:42;;;;;;;0.90;0.73;;;20.30;52.50;;;;;;5071625;28;20217;-56
2021/05/28 01:37:08;;;;;;;1.10;0.70;;;20.30;52.50;;;;;;5059830;28;20220;-57
2021/05/28 01:39:46;;;;;;;2.40;0.70;;;20.20;52.50;;;;;;5073092;28;20217;-58
2021/05/28 01:42:13;;;;;;;1.10;0.67;;;20.30;52.60;;;;;;5057254;28;20213;-57
2021/05/28 01:44:41;;;;;;;0.80;0.70;;;20.30;52.60;;;;;;5063832;28;20588;-55
2021/05/28 01:47:08;;;;;;;1.20;0.70;;;20.20;52.50;;;;;;5064068;28;20213;-57
2021/05/28 01:49:39;;;;;;;1.00;0.63;;;20.20;52.60;;;;;;5078844;28;20641;-55
2021/05/28 01:52:07;;;;;;;0.97;0.60;;;20.20;52.50;;;;;;5066922;28;20224;-57
2021/05/28 01:54:34;;;;;;;0.60;0.60;;;20.20;52.60;;;;;;5074707;28;20232;-57
2021/05/28 01:57:03;;;;;;;1.37;0.70;;;20.20;53.20;;;;;;5069713;28;20314;-58
2021/05/28 01:59:30;;;;;;;1.50;0.80;;;20.20;52.50;;;;;;5075341;28;20213;-58
2021/05/28 02:01:57;;;;;;;1.50;0.77;;;20.20;52.60;;;;;;5062449;28;20307;-57
2021/05/28 02:04:24;;;;;;;1.23;0.60;;;20.20;52.60;;;;;;5064602;28;20217;-57
2021/05/28 02:06:52;;;;;;;1.00;0.77;;;20.10;52.50;;;;;;5060144;28;20221;-57
2021/05/28 02:09:19;;;;;;;0.90;0.53;;;20.10;52.60;;;;;;5068431;28;20681;-57
2021/05/28 02:11:46;;;;;;;0.73;0.60;;;20.10;52.60;;;;;;5064386;28;20226;-55
2021/05/28 02:14:13;;;;;;;0.83;0.80;;;20.20;52.60;;;;;;5051073;28;20232;-57
2021/05/28 02:16:40;;;;;;;0.93;0.70;;;20.10;52.60;;;;;;5067888;28;20544;-57
2021/05/28 02:19:08;;;;;;;1.00;0.70;;;20.10;52.60;;;;;;5060996;28;20233;-55
2021/05/28 02:21:36;;;;;;;1.03;0.90;;;20.10;52.60;;;;;;5072260;28;20225;-55
2021/05/28 02:24:04;;;;;;;0.80;0.70;;;20.10;52.60;;;;;;5058354;28;20214;-57
2021/05/28 02:26:31;;;;;;;1.33;0.80;;;20.10;52.60;;;;;;5082957;28;20959;-57
2021/05/28 02:28:57;;;;;;;1.00;0.70;;;20.10;52.60;;;;;;5059412;28;20236;-57
2021/05/28 02:31:24;;;;;;;1.00;0.80;;;20.10;52.60;;;;;;5061261;28;20232;-55
2021/05/28 02:33:51;;;;;;;1.07;0.77;;;20.10;52.60;;;;;;5059638;28;20935;-57
2021/05/28 02:36:18;;;;;;;0.97;0.70;;;20.00;52.60;;;;;;5081931;28;20222;-54
2021/05/28 02:38:44;;;;;;;0.70;0.70;;;20.00;53.20;;;;;;5058616;28;20224;-57
2021/05/28 02:41:11;;;;;;;1.00;0.60;;;20.00;52.60;;;;;;5063845;28;20558;-57
2021/05/28 02:43:38;;;;;;;0.80;0.70;;;20.00;52.60;;;;;;5056569;28;20229;-57
2021/05/28 02:46:05;;;;;;;0.80;0.70;;;20.00;52.60;;;;;;5062119;28;20351;-57
2021/05/28 02:48:31;;;;;;;1.13;0.70;;;20.00;52.60;;;;;;5063213;28;20229;-57
2021/05/28 02:50:58;;;;;;;0.80;0.67;;;20.00;52.60;;;;;;5064792;28;20229;-57
2021/05/28 02:53:27;;;;;;;0.73;0.73;;;20.00;52.60;;;;;;5054674;28;20226;-57
2021/05/28 02:55:54;;;;;;;0.60;0.60;;;19.90;52.60;;;;;;5062867;28;20217;-57
2021/05/28 02:58:21;;;;;;;0.90;0.77;;;20.00;52.70;;;;;;5058361;28;20248;-57
2021/05/28 03:00:48;;;;;;;0.80;0.80;;;20.00;52.60;;;;;;5064684;28;20733;-57
2021/05/28 03:03:14;;;;;;;0.70;0.70;;;19.90;52.60;;;;;;5071957;28;20587;-57
2021/05/28 03:05:41;;;;;;;0.73;0.60;;;20.00;52.60;;;;;;5070860;28;20222;-55
2021/05/28 03:08:08;;;;;;;0.50;0.50;;;20.00;52.70;;;;;;5065161;28;20224;-55
2021/05/28 03:10:35;;;;;;;0.90;0.60;;;19.90;52.60;;;;;;5063164;28;20231;-58
2021/05/28 03:13:02;;;;;;;1.33;0.70;;;19.90;52.60;;;;;;5066809;28;20237;-55
2021/05/28 03:15:28;;;;;;;0.80;0.80;;;19.90;52.60;;;;;;5068687;28;20217;-56
2021/05/28 03:17:57;;;;;;;1.83;0.60;;;19.90;52.70;;;;;;5071328;28;20224;-56
2021/05/28 03:20:34;;;;;;;0.87;0.50;;;19.90;52.90;;;;;;5063347;28;20235;-56
2021/05/28 03:23:06;;;;;;;0.60;0.60;;;19.90;52.60;;;;;;5062504;28;20219;-56
2021/05/28 03:25:33;;;;;;;0.90;0.60;;;19.90;52.70;;;;;;5060918;28;20218;-56
2021/05/28 03:28:00;;;;;;;0.97;0.60;;;19.90;52.80;;;;;;5067679;28;20236;-56
2021/05/28 03:30:27;;;;;;;0.80;0.67;;;19.90;52.80;;;;;;5062869;28;20755;-56
2021/05/28 03:32:53;;;;;;;1.87;0.53;;;19.90;52.80;;;;;;5083377;28;20233;-56
2021/05/28 03:35:20;;;;;;;1.17;0.73;;;19.90;52.80;;;;;;5057844;28;20901;-56
2021/05/28 03:37:47;;;;;;;1.00;0.60;;;19.80;52.80;;;;;;5067068;28;20217;-56
2021/05/28 03:40:14;;;;;;;0.80;0.60;;;19.80;52.70;;;;;;5059193;28;20213;-56
2021/05/28 03:42:41;;;;;;;0.90;0.70;;;19.80;52.80;;;;;;5072086;28;20216;-56
2021/05/28 03:45:09;;;;;;;1.03;0.70;;;19.80;52.80;;;;;;5060130;28;20217;-56
2021/05/28 03:47:37;;;;;;;1.03;0.83;;;19.80;52.80;;;;;;5073555;28;20229;-56
2021/05/28 03:50:06;;;;;;;0.90;0.80;;;19.80;52.80;;;;;;5062517;28;20759;-56
2021/05/28 03:52:34;;;;;;;0.83;0.80;;;19.80;52.80;;;;;;5075808;28;20217;-56
2021/05/28 03:55:01;;;;;;;0.87;0.80;;;19.80;52.80;;;;;;5061667;28;20283;-56
2021/05/28 03:57:30;;;;;;;1.73;0.90;;;19.80;52.70;;;;;;5066342;28;20229;-58
2021/05/28 03:59:57;;;;;;;0.60;0.53;;;19.80;52.70;;;;;;5076279;28;20228;-57
2021/05/28 04:02:24;;;;;;;0.67;0.60;;;19.80;52.80;;;;;;5069471;28;20230;-57
2021/05/28 04:04:56;;;;;;;0.73;0.63;;;19.80;52.70;;;;;;5071208;28;20734;-57
2021/05/28 04:07:25;;;;;;;1.03;0.80;;;19.80;52.80;;;;;;5067072;28;20222;-57
2021/05/28 04:09:51;;;;;;;0.80;0.63;;;19.70;52.70;;;;;;5078412;28;20217;-57
2021/05/28 04:12:18;;;;;;;0.93;0.80;;;19.80;52.70;;;;;;5063776;28;20220;-57
2021/05/28 04:14:50;;;;;;;0.80;0.70;;;19.80;52.70;;;;;;5063823;28;20926;-57
2021/05/28 04:17:17;;;;;;;1.13;0.70;;;19.70;52.60;;;;;;5062064;28;20224;-57
2021/05/28 04:19:44;;;;;;;0.60;0.60;;;19.80;52.60;;;;;;5066912;28;20278;-57
2021/05/28 04:22:11;;;;;;;1.07;0.97;;;19.70;52.50;;;;;;5064818;28;20222;-57
2021/05/28 04:24:38;;;;;;;0.77;0.60;;;19.80;52.60;;;;;;5067690;28;20224;-57
2021/05/28 04:27:05;;;;;;;1.13;0.70;;;19.80;52.50;;;;;;5062001;28;20230;-57
2021/05/28 04:29:32;;;;;;;0.80;0.70;;;19.80;52.50;;;;;;5055555;28;20229;-58
2021/05/28 04:31:58;;;;;;;0.60;0.50;;;19.70;52.50;;;;;;5062728;28;20225;-57
2021/05/28 04:34:26;;;;;;;0.80;0.80;;;19.70;52.50;;;;;;5067796;28;20283;-57
2021/05/28 04:36:52;;;;;;;0.70;0.60;;;19.70;52.50;;;;;;5053996;28;20775;-57
2021/05/28 04:39:19;;;;;;;0.50;0.40;;;19.70;52.50;;;;;;5058627;28;20244;-57
2021/05/28 04:41:46;;;;;;;0.57;0.50;;;19.70;52.40;;;;;;5065669;28;20227;-54
2021/05/28 04:44:13;;;;;;;1.30;0.87;;;19.70;52.50;;;;;;5064187;28;20217;-54
2021/05/28 04:46:40;;;;;;;1.07;0.60;;;19.70;52.50;;;;;;5063398;28;20224;-54
2021/05/28 04:49:07;;;;;;;0.77;0.70;;;19.70;52.50;;;;;;5066005;28;20990;-54
2021/05/28 04:51:34;;;;;;;0.87;0.60;;;19.70;52.50;;;;;;5076829;28;20225;-56
2021/05/28 04:54:01;;;;;;;0.70;0.53;;;19.70;52.40;;;;;;5059364;28;21081;-57
2021/05/28 04:56:28;;;;;;;0.80;0.63;;;19.70;52.50;;;;;;5050466;28;20221;-56
2021/05/28 04:58:55;;;;;;;1.93;0.70;;;19.70;53.10;;;;;;5056855;28;20617;-55
2021/05/28 05:01:22;;;;;;;0.70;0.70;;;19.70;52.50;;;;;;5051275;28;20236;-55
2021/05/28 05:03:49;;;;;;;0.93;0.80;;;19.70;53.10;;;;;;5056655;28;20222;-55
2021/05/28 05:06:16;;;;;;;0.70;0.70;;;19.70;52.50;;;;;;5060634;28;20221;-56
2021/05/28 05:08:43;;;;;;;0.87;0.70;;;19.70;52.50;;;;;;5054169;28;20215;-56
2021/05/28 05:11:10;;;;;;;0.73;0.73;;;19.70;52.50;;;;;;5058462;28;20233;-55
2021/05/28 05:13:37;;;;;;;0.80;0.70;;;19.60;52.50;;;;;;5050310;28;20931;-55
2021/05/28 05:16:04;;;;;;;1.03;0.73;;;19.70;52.60;;;;;;5057234;28;20226;-55
2021/05/28 05:18:31;;;;;;;1.10;0.80;;;19.70;52.60;;;;;;5064167;28;20217;-55
2021/05/28 05:20:58;;;;;;;0.80;0.80;;;19.70;52.60;;;;;;5061391;28;20957;-60
2021/05/28 05:23:24;;;;;;;0.70;0.70;;;19.70;52.60;;;;;;5048341;28;20241;-60
2021/05/28 05:25:51;;;;;;;0.83;0.80;;;19.70;52.60;;;;;;5057487;28;20222;-60
2021/05/28 05:28:18;;;;;;;0.70;0.70;;;19.70;52.60;;;;;;5048499;28;20873;-60
2021/05/28 05:30:45;;;;;;;1.07;0.80;;;19.60;52.60;;;;;;5059074;28;20214;-53
2021/05/28 05:33:11;;;;;;;3.00;0.80;;;19.60;52.60;;;;;;5067666;28;20885;-53
2021/05/28 05:35:38;;;;;;;1.33;0.90;;;19.60;52.50;;;;;;5057209;28;20693;-53
2021/05/28 05:38:08;;;;;;;1.43;1.00;;;19.60;52.60;;;;;;5054607;28;20218;-54
2021/05/28 05:40:36;;;;;;;2.87;0.97;;;19.70;52.60;;;;;;5064129;28;20225;-57
2021/05/28 05:43:04;;;;;;;1.00;1.00;;;19.60;52.50;;;;;;5065119;28;20214;-57
2021/05/28 05:45:32;;;;;;;3.53;1.90;;;19.60;52.50;;;;;;5056184;28;20248;-58
2021/05/28 05:48:00;;;;;;;22.63;6.67;;;19.70;52.50;;;;;;5061279;28;20264;-57
2021/05/28 05:50:27;;;;;;;29.90;7.27;;;19.70;52.90;;;;;;5060123;28;20720;-61
2021/05/28 05:52:54;;;;;;;17.73;5.37;;;19.70;53.40;;;;;;5059694;28;20229;-62
2021/05/28 05:55:23;;;;;;;11.43;4.60;;;19.70;53.30;;;;;;5062018;28;20229;-64
2021/05/28 05:57:51;;;;;;;18.53;4.80;;;19.70;54.10;;;;;;5061347;28;20308;-66
2021/05/28 06:00:18;;;;;;;8.43;3.63;;;19.80;53.30;;;;;;5051492;28;20968;-64
2021/05/28 06:03:12;;;;;;;9.23;3.77;;;19.80;53.40;;;;;;5031441;28;20750;-64
2021/05/28 06:05:59;;;;;;;11.20;3.37;;;19.80;53.20;;;;;;5053320;28;20236;-64
2021/05/28 06:08:53;;;;;;;6.87;2.90;;;19.80;53.20;;;;;;5025204;28;20229;-68
2021/05/28 06:11:40;;;;;;;5.40;2.50;;;19.80;52.90;;;;;;5029243;28;20227;-66
2021/05/28 06:14:34;;;;;;;6.33;2.57;;;19.90;52.90;;;;;;5047193;28;20240;-62
2021/05/28 06:17:21;;;;;;;5.00;2.10;;;19.90;53.50;;;;;;5052510;28;20226;-59
2021/05/28 06:20:14;;;;;;;3.37;2.00;;;19.90;52.80;;;;;;5040683;28;20225;-60
2021/05/28 06:23:01;;;;;;;3.63;1.63;;;20.00;52.80;;;;;;5049127;28;20237;-62
2021/05/28 06:25:57;;;;;;;2.63;1.80;;;20.00;52.60;;;;;;5052446;28;20222;-61
2021/05/28 06:28:44;;;;;;;3.60;1.90;;;20.10;52.30;;;;;;5038789;28;20259;-63
2021/05/28 06:31:37;;;;;;;4.27;2.30;;;20.10;52.00;;;;;;5039027;28;20914;-59
2021/05/28 06:34:31;;;;;;;2.10;1.67;;;20.10;51.70;;;;;;5051015;28;20232;-61
2021/05/28 06:37:18;;;;;;;2.30;1.83;;;20.10;51.70;;;;;;5048748;28;20225;-60
2021/05/28 06:40:13;;;;;;;2.40;2.20;;;20.10;51.50;;;;;;5043283;28;20222;-62
2021/05/28 06:43:00;;;;;;;2.67;2.47;;;20.20;51.20;;;;;;5054876;28;20670;-61
2021/05/28 06:45:57;;;;;;;2.20;2.00;;;20.10;51.00;;;;;;5036716;28;20320;-62
2021/05/28 06:48:44;;;;;;;2.07;1.97;;;20.10;51.10;;;;;;5031458;28;20705;-66
2021/05/28 06:51:46;;;;;;;3.97;2.23;;;20.10;51.10;;;;;;5039346;28;20627;-63
2021/05/28 06:54:46;;;;;;;2.23;1.90;;;20.10;51.00;;;;;;5030128;28;20892;-60
2021/05/28 06:57:34;;;;;;;2.10;1.90;;;20.20;51.30;;;;;;5058793;28;20233;-63
2021/05/28 07:00:34;;;;;;;1.60;1.50;;;20.20;51.20;;;;;;5052707;28;20229;-61
2021/05/28 07:03:28;;;;;;;1.83;1.40;;;20.20;51.30;;;;;;5041970;28;20225;-64
2021/05/28 07:06:22;;;;;;;1.77;1.67;;;20.30;51.60;;;;;;5038901;28;20233;-61
2021/05/28 07:09:22;;;;;;;2.10;1.90;;;20.30;50.90;;;;;;5042206;28;20617;-63
2021/05/28 07:12:10;;;;;;;2.30;2.10;;;20.30;50.80;;;;;;5044175;28;20226;-60
2021/05/28 07:15:11;;;;;;;2.63;2.10;;;20.30;50.80;;;;;;5049506;28;20296;-62
2021/05/28 07:18:23;;;;;;;2.83;2.30;;;20.30;51.00;;;;;;5042270;28;20234;-58
2021/05/28 07:21:17;;;;;;;7.77;2.07;;;20.30;51.00;;;;;;5029285;28;20673;-60
2021/05/28 07:24:18;;;;;;;2.00;1.80;;;20.30;51.00;;;;;;5040930;28;20225;-62
2021/05/28 07:27:05;;;;;;;2.27;2.07;;;20.40;50.90;;;;;;5029742;28;20911;-62
2021/05/28 07:33:51;;;;;;;1.77;1.67;;;20.30;49.80;;;;;;5031154;28;20798;-60
2021/05/28 07:36:45;;;;;;;2.23;2.03;;;20.30;49.50;;;;;;5041862;28;21989;-61
2021/05/28 07:39:39;;;;;;;2.67;1.90;;;20.30;49.50;;;;;;5042175;28;20213;-56
2021/05/28 07:42:33;;;;;;;3.73;2.80;;;20.30;49.30;;;;;;5064644;28;20228;-62
2021/05/28 07:45:27;;;;;;;5.33;3.00;;;20.30;50.50;;;;;;5054855;28;20241;-63
2021/05/28 07:48:22;;;;;;;3.13;2.53;;;20.30;52.80;;;;;;5040762;28;20232;-57
2021/05/28 07:51:22;;;;;;;3.00;2.47;;;20.30;52.30;;;;;;5035791;28;20676;-56
2021/05/28 07:54:17;;;;;;;5.37;2.43;;;20.20;51.90;;;;;;5035741;28;20779;-56
2021/05/28 07:57:16;;;;;;;2.47;1.90;;;20.20;51.90;;;;;;5026293;28;20221;-63
2021/05/28 08:00:11;;;;;;;2.70;1.90;;;20.20;52.60;;;;;;5043447;28;20217;-61
2021/05/28 08:02:38;;;;;;;3.90;1.53;;;20.20;53.10;;;;;;5060639;28;20229;-62
2021/05/28 08:05:05;;;;;;;2.73;1.80;;;20.20;53.10;;;;;;5051244;28;20555;-61
2021/05/28 08:07:32;;;;;;;5.80;2.10;;;20.20;53.00;;;;;;5059789;28;20548;-61
2021/05/28 08:09:59;;;;;;;3.00;2.10;;;20.20;52.90;;;;;;5042281;28;20222;-65
2021/05/28 08:12:26;;;;;;;2.33;1.90;;;20.20;53.20;;;;;;5060870;28;20885;-59
2021/05/28 08:14:58;;;;;;;3.10;2.23;;;20.20;53.10;;;;;;5062708;28;20241;-59
2021/05/28 08:17:24;;;;;;;5.83;2.13;;;20.30;53.30;;;;;;5052632;28;20609;-60
2021/05/28 08:19:51;;;;;;;2.60;2.40;;;20.20;52.90;;;;;;5054770;28;20253;-59
2021/05/28 08:22:19;;;;;;;3.23;2.90;;;20.20;52.60;;;;;;5053907;28;20225;-59
2021/05/28 08:24:46;;;;;;;3.30;3.00;;;20.10;52.60;;;;;;5057650;28;20217;-59
2021/05/28 08:27:13;;;;;;;3.27;2.80;;;20.10;52.70;;;;;;5058763;28;21653;-59
2021/05/28 08:38:05;;;;;;;3.67;3.30;;;20.00;53.20;;;;;;4988907;28;20699;-61
2021/05/28 08:40:34;;;;;;;3.60;3.30;;;20.10;53.20;;;;;;5059390;28;20218;-62
2021/05/28 08:43:02;;;;;;;3.23;2.87;;;20.00;53.60;;;;;;5065285;28;20225;-62
2021/05/28 08:45:38;;;;;;;3.60;3.30;;;20.00;54.10;;;;;;5060132;28;20236;-59
2021/05/28 08:48:07;;;;;;;3.23;2.93;;;20.10;54.30;;;;;;5055079;28;21131;-59
2021/05/28 08:50:34;;;;;;;3.30;3.00;;;20.10;54.30;;;;;;5057409;28;20233;-58
2021/05/28 08:53:07;;;;;;;3.67;3.23;;;20.10;54.50;;;;;;5065284;28;20234;-59
2021/05/28 08:55:36;;;;;;;3.60;3.30;;;20.10;54.30;;;;;;5057051;28;20231;-60
2021/05/28 08:58:21;;;;;;;3.67;3.37;;;20.10;54.80;;;;;;5062682;28;20225;-60
2021/05/28 09:00:49;;;;;;;3.93;3.63;;;20.20;54.70;;;;;;5063156;28;20236;-59
2021/05/28 09:03:36;;;;;;;3.23;3.03;;;20.20;54.40;;;;;;5061702;28;20243;-61
2021/05/28 09:06:17;;;;;;;4.17;3.43;;;20.30;54.50;;;;;;5059352;28;20557;-60
2021/05/28 09:08:44;;;;;;;4.17;3.67;;;20.30;54.10;;;;;;5062175;28;20234;-60
2021/05/28 09:11:15;;;;;;;3.37;3.07;;;20.40;54.20;;;;;;5063822;28;20704;-66
2021/05/28 09:13:57;;;;;;;3.53;3.23;;;20.40;54.20;;;;;;5062956;28;20234;-70
2021/05/28 09:16:27;;;;;;;3.63;3.23;;;20.50;54.00;;;;;;5063435;28;20341;-68
2021/05/28 09:18:56;;;;;;;3.30;3.00;;;20.50;54.20;;;;;;5056137;28;20230;-68
2021/05/28 09:21:32;;;;;;;3.13;2.83;;;20.50;54.10;;;;;;5060417;28;20230;-64
2021/05/28 09:24:04;;;;;;;3.30;2.67;;;20.60;54.10;;;;;;5061346;28;20282;-65
2021/05/28 09:26:33;;;;;;;3.03;2.80;;;20.70;54.40;;;;;;5077760;28;21352;-65
2021/05/28 09:29:01;;;;;;;3.43;3.13;;;20.70;54.20;;;;;;5055091;28;21585;-73
2021/05/28 09:31:34;;;;;;;4.10;3.37;;;20.70;54.20;;;;;;5058079;28;20304;-72
2021/05/28 09:34:03;;;;;;;3.50;3.20;;;20.70;54.00;;;;;;5054669;28;20221;-72
2021/05/28 09:36:35;;;;;;;3.57;3.27;;;20.80;54.10;;;;;;5036958;28;20235;-61
2021/05/28 09:39:14;;;;;;;4.07;3.67;;;20.80;54.00;;;;;;5047048;28;20648;-59
2021/05/28 09:41:57;;;;;;;3.73;3.43;;;20.90;54.10;;;;;;5070558;28;20589;-59
2021/05/28 09:44:31;;;;;;;4.20;3.90;;;20.90;53.60;;;;;;5052681;28;20223;-57
2021/05/28 09:47:14;;;;;;;3.83;2.97;;;20.90;53.50;;;;;;5065562;28;20508;-67
2021/05/28 09:49:48;;;;;;;3.23;2.93;;;20.90;53.80;;;;;;5049066;28;20676;-61
2021/05/28 09:52:18;;;;;;;3.20;2.90;;;20.90;53.80;;;;;;5063449;28;20233;-64
2021/05/28 09:55:09;;;;;;;5.23;3.57;;;20.90;53.70;;;;;;5073325;28;20235;-62
2021/05/28 09:57:48;;;;;;;3.70;3.13;;;21.00;53.50;;;;;;5062386;28;21498;-70
2021/05/28 10:00:32;;;;;;;3.33;3.00;;;21.00;53.30;;;;;;5073219;28;20225;-63
2021/05/28 10:03:21;;;;;;;2.67;2.43;;;21.00;53.40;;;;;;5051367;28;20555;-64
2021/05/28 10:05:52;;;;;;;3.73;3.00;;;21.10;53.30;;;;;;5040805;28;20363;-60
2021/05/28 10:08:20;;;;;;;2.80;2.60;;;21.10;53.30;;;;;;5056015;28;20221;-60
2021/05/28 10:10:49;;;;;;;2.80;2.60;;;21.20;53.30;;;;;;5065847;28;20223;-63
2021/05/28 10:13:19;;;;;;;2.43;2.23;;;21.20;53.00;;;;;;5051892;28;20222;-65
2021/05/28 10:15:53;;;;;;;3.73;2.77;;;21.20;53.20;;;;;;5071252;28;20248;-65
2021/05/28 10:18:21;;;;;;;5.00;2.60;;;21.20;53.00;;;;;;5051892;28;20240;-64
2021/05/28 10:20:54;;;;;;;2.60;2.40;;;21.20;53.20;;;;;;5059901;28;20217;-64
2021/05/28 10:23:23;;;;;;;3.10;2.80;;;21.30;52.90;;;;;;5050066;28;20229;-69
2021/05/28 10:25:55;;;;;;;3.90;2.43;;;21.30;53.20;;;;;;5063839;28;20221;-63
2021/05/28 10:28:28;;;;;;;2.70;2.50;;;21.30;53.20;;;;;;5051522;28;20242;-67
2021/05/28 10:30:55;;;;;;;4.23;2.50;;;21.30;53.10;;;;;;5061904;28;20234;-63
2021/05/28 10:33:27;;;;;;;3.00;2.70;;;21.40;53.20;;;;;;5067772;28;20290;-67
2021/05/28 10:35:59;;;;;;;2.83;2.63;;;21.40;53.40;;;;;;5049194;28;20714;-63
2021/05/28 10:38:29;;;;;;;5.80;2.97;;;21.40;53.30;;;;;;5069318;28;20221;-69
2021/05/28 10:40:59;;;;;;;3.23;2.93;;;21.50;52.90;;;;;;5061112;28;21023;-70
2021/05/28 10:43:27;;;;;;;3.40;2.73;;;21.50;52.90;;;;;;5065892;28;20221;-65
2021/05/28 10:46:10;;;;;;;3.03;2.73;;;21.50;53.10;;;;;;5056498;28;20233;-61
2021/05/28 10:48:37;;;;;;;3.13;2.83;;;21.50;53.10;;;;;;5029400;28;21544;-65
2021/05/28 10:51:04;;;;;;;4.00;3.60;;;21.60;52.90;;;;;;5062509;28;20235;-63
2021/05/28 10:53:32;;;;;;;4.20;3.80;;;21.60;52.30;;;;;;5065977;28;20740;-66
2021/05/28 10:56:11;;;;;;;4.40;4.00;;;21.60;51.30;;;;;;5054541;28;20248;-66
2021/05/28 10:58:58;;;;;;;4.30;3.90;;;21.60;51.00;;;;;;5043748;28;20858;-67
2021/05/28 11:01:47;;;;;;;4.37;3.87;;;21.60;51.30;;;;;;5050090;28;20226;-67
2021/05/28 11:04:18;;;;;;;3.57;3.27;;;21.70;51.80;;;;;;5034588;28;20232;-64
2021/05/28 11:06:54;;;;;;;3.03;2.80;;;21.70;52.20;;;;;;5067102;28;20600;-68
2021/05/28 11:09:49;;;;;;;2.90;2.70;;;21.70;52.70;;;;;;5060241;28;20253;-71
2021/05/28 11:12:24;;;;;;;2.53;2.33;;;21.70;52.50;;;;;;5037247;28;20225;-70
2021/05/28 11:15:10;;;;;;;6.17;2.10;;;21.70;52.60;;;;;;5062402;28;20229;-67
2021/05/28 11:17:58;;;;;;;2.20;2.00;;;21.70;52.60;;;;;;5064427;28;20891;-66
2021/05/28 11:20:35;;;;;;;3.03;2.30;;;21.70;52.50;;;;;;5064681;28;20583;-64
2021/05/28 11:23:08;;;;;;;2.03;1.93;;;21.70;52.40;;;;;;5058351;28;20722;-64
2021/05/28 11:25:53;;;;;;;2.43;2.23;;;21.70;51.40;;;;;;5062956;28;20225;-58
2021/05/28 11:28:20;;;;;;;2.53;2.30;;;21.50;51.40;;;;;;5060160;28;20224;-57
2021/05/28 11:30:48;;;;;;;2.30;2.10;;;21.40;50.60;;;;;;5062268;28;20889;-57
2021/05/28 11:33:33;;;;;;;3.40;2.30;;;21.40;50.50;;;;;;5056037;28;20233;-57
2021/05/28 11:36:00;;;;;;;6.13;2.83;;;21.30;50.60;;;;;;5058796;28;20233;-57
2021/05/28 11:38:32;;;;;;;4.30;2.97;;;21.20;49.70;;;;;;5060598;28;20248;-57
2021/05/28 11:40:59;;;;;;;2.50;2.30;;;21.30;49.80;;;;;;5056538;28;20230;-57
2021/05/28 11:43:34;;;;;;;2.43;2.20;;;21.20;50.80;;;;;;5054515;28;20233;-57
2021/05/28 11:46:02;;;;;;;3.47;2.17;;;21.20;50.80;;;;;;5055198;28;20493;-59
2021/05/28 11:48:29;;;;;;;4.00;2.50;;;21.20;51.40;;;;;;5056232;28;20311;-58
2021/05/28 11:50:58;;;;;;;2.80;2.47;;;21.20;50.30;;;;;;5060415;28;20226;-65
2021/05/28 11:53:41;;;;;;;2.80;2.60;;;21.20;50.60;;;;;;5048144;28;20240;-65
2021/05/28 11:56:07;;;;;;;3.03;2.67;;;21.20;50.00;;;;;;5043133;28;20427;-64
2021/05/28 11:58:35;;;;;;;3.83;2.40;;;21.10;50.00;;;;;;5059460;28;20251;-64
2021/05/28 12:01:04;;;;;;;2.70;2.50;;;21.10;50.40;;;;;;5061385;28;20881;-64
2021/05/28 12:03:31;;;;;;;2.90;2.60;;;21.10;51.00;;;;;;5071020;28;20719;-64
2021/05/28 12:06:05;;;;;;;2.47;2.20;;;21.20;50.30;;;;;;5060990;28;20952;-64
2021/05/28 12:08:34;;;;;;;2.33;2.10;;;21.20;51.30;;;;;;5067807;28;20224;-64
2021/05/28 12:11:05;;;;;;;3.10;2.40;;;21.20;51.90;;;;;;5063803;28;20335;-64
2021/05/28 12:13:37;;;;;;;3.60;2.67;;;21.20;52.20;;;;;;5072076;28;21270;-64
2021/05/28 12:20:31;;;;;;;2.60;2.40;;;21.20;50.90;;;;;;5000526;28;21062;-63
2021/05/28 12:23:54;;;;;;;2.57;2.37;;;21.10;50.20;;;;;;5039193;28;20249;-63
2021/05/28 12:26:26;;;;;;;3.13;2.87;;;21.20;49.00;;;;;;5020331;28;20486;-65
2021/05/28 12:28:58;;;;;;;3.10;2.80;;;21.20;47.50;;;;;;5062680;28;20222;-65
2021/05/28 12:31:30;;;;;;;3.30;3.00;;;21.20;47.30;;;;;;5062438;28;20727;-60
2021/05/28 12:34:05;;;;;;;3.10;2.80;;;21.20;49.20;;;;;;5061861;28;20829;-58
2021/05/28 12:37:01;;;;;;;2.73;2.30;;;21.20;50.30;;;;;;5059207;28;20728;-58
2021/05/28 12:39:29;;;;;;;2.33;1.90;;;21.20;51.70;;;;;;5051396;28;20594;-58
2021/05/28 12:41:56;;;;;;;2.37;2.17;;;21.20;51.70;;;;;;5057543;28;20221;-59
2021/05/28 12:44:26;;;;;;;3.10;2.53;;;21.20;52.30;;;;;;5059867;28;25649;-65
2021/05/28 12:47:00;;;;;;;3.00;2.17;;;21.20;49.50;;;;;;5070941;28;20677;-59
2021/05/28 12:49:33;;;;;;;2.07;1.87;;;21.30;51.80;;;;;;5057631;28;20221;-58
2021/05/28 12:52:01;;;;;;;1.70;1.60;;;21.30;52.70;;;;;;5051800;28;20232;-70
2021/05/28 12:54:34;;;;;;;1.83;1.50;;;21.30;52.70;;;;;;5060123;28;20616;-63
2021/05/28 12:57:04;;;;;;;2.00;1.90;;;21.30;52.50;;;;;;5065109;28;20642;-62
2021/05/28 12:59:38;;;;;;;1.90;1.77;;;21.30;53.10;;;;;;5060652;28;21348;-64
2021/05/28 13:02:18;;;;;;;2.20;2.00;;;21.30;52.60;;;;;;5062478;28;21369;-65
2021/05/28 13:04:53;;;;;;;2.27;2.07;;;21.30;52.30;;;;;;5058435;28;20230;-65
2021/05/28 13:07:37;;;;;;;2.80;2.60;;;21.30;52.30;;;;;;5060167;28;20236;-63
2021/05/28 13:10:14;;;;;;;5.13;3.33;;;21.40;51.10;;;;;;5056324;28;20531;-61
2021/05/28 13:12:41;;;;;;;3.93;2.53;;;21.40;50.00;;;;;;5046517;28;20255;-58
2021/05/28 13:15:09;;;;;;;3.00;2.33;;;21.60;50.80;;;;;;5052956;28;20214;-59
2021/05/28 13:17:36;;;;;;;4.53;2.10;;;21.60;51.50;;;;;;5040255;28;20229;-59
2021/05/28 13:20:07;;;;;;;2.67;2.00;;;21.60;51.00;;;;;;5052185;28;20214;-59
2021/05/28 13:22:41;;;;;;;2.63;2.43;;;21.70;50.80;;;;;;5046035;28;20642;-59
2021/05/28 13:25:31;;;;;;;3.33;1.90;;;21.80;49.40;;;;;;5062241;28;20602;-61
2021/05/28 13:28:03;;;;;;;1.67;1.47;;;21.90;50.40;;;;;;5062070;28;20342;-61
2021/05/28 13:30:35;;;;;;;1.93;1.57;;;21.90;51.10;;;;;;5059084;28;20581;-61
2021/05/28 13:33:24;;;;;;;3.50;1.80;;;21.90;51.50;;;;;;5055348;28;20552;-64